createdAt,value
2022-11-24T00:02:03.915Z,1.65
2022-11-24T00:05:46.311Z,1.50
2022-11-24T00:09:28.325Z,1.83
2022-11-24T00:13:10.229Z,1.73
2022-11-24T00:16:52.229Z,2.00
2022-11-24T00:20:34.135Z,1.90
2022-11-24T00:24:16.198Z,2.00
2022-11-24T00:27:58.167Z,2.35
2022-11-24T00:31:41.908Z,2.10
2022-11-24T00:35:23.808Z,1.90
2022-11-24T00:39:15.104Z,2.30
2022-11-24T00:42:57.026Z,1.85
2022-11-24T00:46:39.338Z,2.45
2022-11-24T00:50:21.373Z,2.75
2022-11-24T00:54:03.351Z,2.50
2022-11-24T00:57:45.358Z,2.63
2022-11-24T01:01:31.089Z,2.85
2022-11-24T01:05:13.160Z,2.78
2022-11-24T01:08:57.178Z,2.40
2022-11-24T01:12:39.071Z,2.05
2022-11-24T01:16:31.413Z,2.30
2022-11-24T01:20:13.722Z,2.92
2022-11-24T01:23:55.614Z,2.35
2022-11-24T01:27:38.342Z,2.78
2022-11-24T01:31:20.366Z,3.00
2022-11-24T01:35:06.118Z,4.15
2022-11-24T01:38:48.059Z,3.00
2022-11-24T01:42:43.751Z,3.38
2022-11-24T01:46:44.752Z,4.72
2022-11-24T01:50:26.877Z,3.20
2022-11-24T01:54:31.947Z,3.35
2022-11-24T01:58:21.140Z,3.70
2022-11-24T02:02:03.812Z,2.75
2022-11-24T02:05:58.723Z,3.15
2022-11-24T02:09:50.347Z,3.03
2022-11-24T02:13:35.593Z,3.50
2022-11-24T02:17:17.488Z,3.55
2022-11-24T02:21:00.676Z,3.30
2022-11-24T02:24:54.100Z,3.00
2022-11-24T02:28:36.458Z,3.75
2022-11-24T02:32:19.481Z,4.03
2022-11-24T02:36:01.412Z,3.40
2022-11-24T02:39:43.262Z,3.85
2022-11-24T02:43:28.959Z,3.63
2022-11-24T02:47:12.511Z,3.72
2022-11-24T02:50:54.776Z,3.10
2022-11-24T02:54:37.155Z,3.50
2022-11-24T02:58:19.259Z,3.40
2022-11-24T03:02:01.232Z,3.63
2022-11-24T03:05:43.130Z,4.05
2022-11-24T03:09:25.037Z,3.08
2022-11-24T03:13:07.002Z,3.42
2022-11-24T03:16:48.888Z,3.00
2022-11-24T03:20:30.858Z,3.05
2022-11-24T03:24:12.729Z,2.88
2022-11-24T03:27:57.347Z,3.38
2022-11-24T03:31:39.311Z,4.00
2022-11-24T03:35:22.149Z,3.00
2022-11-24T03:39:04.186Z,4.22
2022-11-24T03:42:46.122Z,3.58
2022-11-24T03:46:28.028Z,4.13
2022-11-24T03:50:10.042Z,3.60
2022-11-24T03:53:51.938Z,3.03
2022-11-24T03:57:33.914Z,3.80
2022-11-24T04:01:15.885Z,3.25
2022-11-24T04:04:59.232Z,3.58
2022-11-24T04:08:41.102Z,3.60
2022-11-24T04:12:42.025Z,3.47
2022-11-24T04:16:24.080Z,3.28
2022-11-24T04:20:06.774Z,3.90
2022-11-24T04:23:48.618Z,3.33
2022-11-24T04:27:32.323Z,3.30
2022-11-24T04:31:14.325Z,3.88
2022-11-24T04:34:56.307Z,2.83
2022-11-24T04:39:25.473Z,3.50
2022-11-24T04:42:40.491Z,3.65
2022-11-24T04:46:22.398Z,3.10
2022-11-24T04:50:04.963Z,4.30
2022-11-24T04:53:49.034Z,3.83
2022-11-24T04:57:30.911Z,3.75
2022-11-24T05:01:12.826Z,3.92
2022-11-24T05:04:54.761Z,3.20
2022-11-24T05:08:37.014Z,3.47
2022-11-24T05:12:18.876Z,4.45
2022-11-24T05:16:01.789Z,4.57
2022-11-24T05:19:43.779Z,3.75
2022-11-24T05:23:26.121Z,4.35
2022-11-24T05:27:07.979Z,3.75
2022-11-24T05:30:49.883Z,4.07
2022-11-24T05:34:33.668Z,5.38
2022-11-24T05:38:17.137Z,3.53
2022-11-24T05:41:59.124Z,4.55
2022-11-24T05:45:41.174Z,4.32
2022-11-24T05:49:23.077Z,4.57
2022-11-24T05:53:08.300Z,3.55
2022-11-24T05:56:50.273Z,4.15
2022-11-24T06:00:33.834Z,3.50
2022-11-24T06:04:15.755Z,3.60
2022-11-24T06:07:59.514Z,4.25
2022-11-24T06:11:41.446Z,4.35
2022-11-24T06:15:23.423Z,3.88
2022-11-24T06:19:05.350Z,3.60
2022-11-24T06:22:48.328Z,4.13
2022-11-24T06:26:30.185Z,3.92
2022-11-24T06:30:13.040Z,4.68
2022-11-24T06:33:54.912Z,4.32
2022-11-24T06:37:37.411Z,4.35
2022-11-24T06:41:19.894Z,4.60
2022-11-24T06:45:04.852Z,3.92
2022-11-24T06:48:53.753Z,3.78
2022-11-24T06:52:35.636Z,3.90
2022-11-24T06:56:20.553Z,4.28
2022-11-24T07:00:04.136Z,4.32
2022-11-24T07:03:48.141Z,4.47
2022-11-24T07:07:30.080Z,4.35
2022-11-24T07:11:17.917Z,4.70
2022-11-24T07:14:59.773Z,4.95
2022-11-24T07:18:42.956Z,4.85
2022-11-24T07:22:24.929Z,4.43
2022-11-24T07:26:08.873Z,5.53
2022-11-24T07:29:50.743Z,4.07
2022-11-24T07:33:32.610Z,5.68
2022-11-24T07:37:14.494Z,5.47
2022-11-24T07:41:01.367Z,5.85
2022-11-24T07:44:43.298Z,5.68
2022-11-24T07:48:25.187Z,5.75
2022-11-24T07:52:08.232Z,5.80
2022-11-24T07:56:01.904Z,5.38
2022-11-24T07:59:43.799Z,5.18
2022-11-24T08:03:26.004Z,5.22
2022-11-24T08:07:08.016Z,7.85
2022-11-24T08:10:50.046Z,6.40
2022-11-24T08:14:32.111Z,6.85
2022-11-24T08:18:14.195Z,7.20
2022-11-24T08:21:56.115Z,7.80
2022-11-24T08:25:37.980Z,6.82
2022-11-24T08:29:19.920Z,8.07
2022-11-24T08:33:02.237Z,9.48
2022-11-24T08:36:44.125Z,6.82
2022-11-24T08:40:26.063Z,6.65
2022-11-24T08:44:09.319Z,6.38
2022-11-24T08:47:55.600Z,5.70
2022-11-24T08:51:37.546Z,6.28
2022-11-24T08:55:20.099Z,5.55
2022-11-24T08:59:03.017Z,6.90
2022-11-24T09:02:44.935Z,6.55
2022-11-24T09:06:30.991Z,5.82
2022-11-24T09:10:13.866Z,6.10
2022-11-24T09:13:56.025Z,6.95
2022-11-24T09:17:37.944Z,6.15
2022-11-24T09:21:22.201Z,5.85
2022-11-24T09:25:06.809Z,6.53
2022-11-24T09:28:49.363Z,6.40
2022-11-24T09:32:31.217Z,5.95
2022-11-24T09:36:14.038Z,5.65
2022-11-24T09:39:55.884Z,5.10
2022-11-24T09:43:56.543Z,5.93
2022-11-24T09:48:10.137Z,6.22
2022-11-24T09:51:55.089Z,5.93
2022-11-24T09:55:45.370Z,7.30
2022-11-24T09:59:28.587Z,6.78
2022-11-24T10:03:44.534Z,6.45
2022-11-24T10:07:32.927Z,6.25
2022-11-24T10:11:38.798Z,6.22
2022-11-24T10:15:45.417Z,6.18
2022-11-24T10:20:05.784Z,5.70
2022-11-24T10:24:09.363Z,4.82
2022-11-24T10:28:15.704Z,5.28
2022-11-24T10:31:57.942Z,4.93
2022-11-24T10:36:02.234Z,5.03
2022-11-24T10:39:59.641Z,6.15
2022-11-24T10:43:43.244Z,5.03
2022-11-24T10:47:25.110Z,5.07
2022-11-24T10:51:41.519Z,4.82
2022-11-24T10:55:23.716Z,5.18
2022-11-24T10:59:30.208Z,4.53
2022-11-24T11:03:18.781Z,5.40
2022-11-24T11:07:26.986Z,5.47
2022-11-24T11:11:27.967Z,5.90
2022-11-24T11:15:28.754Z,5.55
2022-11-24T11:19:49.827Z,4.57
2022-11-24T11:23:35.441Z,4.80
2022-11-24T11:27:18.534Z,4.82
2022-11-24T11:31:20.919Z,4.63
2022-11-24T11:35:03.746Z,5.70
2022-11-24T11:38:48.186Z,5.07
2022-11-24T11:46:35.132Z,5.15
2022-11-24T11:50:24.698Z,4.72
2022-11-24T11:54:46.287Z,4.90
2022-11-24T11:58:42.609Z,5.00
2022-11-24T12:02:52.910Z,4.55
2022-11-24T12:06:47.581Z,5.15
2022-11-24T12:10:48.253Z,4.28
2022-11-24T12:14:42.979Z,4.32
2022-11-24T12:23:00.045Z,4.50
2022-11-24T12:26:53.975Z,4.38
2022-11-24T12:30:51.334Z,4.50
2022-11-24T12:34:51.573Z,5.07
2022-11-24T12:39:06.592Z,4.28
2022-11-24T12:43:08.597Z,4.10
2022-11-24T12:47:11.668Z,5.78
2022-11-24T12:50:56.094Z,4.93
2022-11-24T12:54:41.026Z,4.45
2022-11-24T12:58:39.779Z,4.93
2022-11-24T13:02:37.671Z,3.83
2022-11-24T13:06:35.580Z,4.22
2022-11-24T13:10:54.904Z,4.80
2022-11-24T13:14:31.672Z,4.55
2022-11-24T13:18:57.635Z,4.20
2022-11-24T13:22:39.661Z,4.15
2022-11-24T13:26:43.863Z,3.72
2022-11-24T13:30:35.008Z,3.17
2022-11-24T13:34:39.947Z,3.65
2022-11-24T13:38:42.113Z,3.97
2022-11-24T13:42:41.586Z,3.78
2022-11-24T13:47:06.236Z,3.78
2022-11-24T13:50:52.202Z,3.95
2022-11-24T13:54:34.419Z,4.00
2022-11-24T13:58:41.904Z,3.92
2022-11-24T14:02:24.423Z,3.85
2022-11-24T14:06:06.743Z,3.28
2022-11-24T14:09:52.116Z,2.15
2022-11-24T14:13:34.653Z,2.20
2022-11-24T14:17:25.564Z,2.17
2022-11-24T14:21:28.496Z,2.60
2022-11-24T14:25:30.887Z,4.28
2022-11-24T14:29:23.047Z,3.75
2022-11-24T14:33:10.769Z,6.65
2022-11-24T14:36:56.827Z,4.65
2022-11-24T14:40:40.742Z,3.72
2022-11-24T14:44:28.082Z,4.00
2022-11-24T14:48:17.702Z,6.60
2022-11-24T14:52:02.934Z,3.50
2022-11-24T14:55:44.848Z,4.68
2022-11-24T14:59:30.483Z,5.07
2022-11-24T15:03:19.984Z,3.72
2022-11-24T15:07:01.874Z,3.22
2022-11-24T15:10:44.217Z,3.28
2022-11-24T15:14:46.383Z,3.70
2022-11-24T15:18:40.669Z,2.70
2022-11-24T15:22:31.790Z,1.98
2022-11-24T15:26:13.603Z,2.40
2022-11-24T15:29:55.568Z,3.10
2022-11-24T15:33:37.904Z,3.28
2022-11-24T15:37:19.852Z,2.28
2022-11-24T15:41:02.355Z,3.22
2022-11-24T15:44:44.293Z,3.53
2022-11-24T15:48:26.717Z,4.53
2022-11-24T15:52:08.771Z,3.80
2022-11-24T15:55:51.655Z,5.32
2022-11-24T15:59:33.973Z,3.65
2022-11-24T16:03:45.775Z,4.57
2022-11-24T16:07:18.162Z,3.60
2022-11-24T16:11:04.459Z,3.25
2022-11-24T16:14:46.394Z,3.97
2022-11-24T16:18:28.271Z,4.70
2022-11-24T16:22:10.163Z,6.60
2022-11-24T16:25:52.204Z,8.63
2022-11-24T16:29:38.212Z,10.10
2022-11-24T16:33:20.590Z,7.88
2022-11-24T16:37:02.488Z,7.15
2022-11-24T16:40:44.500Z,6.90
2022-11-24T16:44:26.467Z,6.70
2022-11-24T16:48:08.365Z,5.07
2022-11-24T16:51:50.222Z,4.65
2022-11-24T16:55:32.083Z,5.38
2022-11-24T16:59:14.005Z,6.53
2022-11-24T17:02:55.932Z,6.13
2022-11-24T17:06:37.840Z,5.20
2022-11-24T17:10:19.906Z,5.00
2022-11-24T17:14:02.999Z,3.85
2022-11-24T17:18:08.507Z,4.53
2022-11-24T17:21:46.717Z,5.20
2022-11-24T17:25:28.628Z,5.60
2022-11-24T17:29:10.666Z,4.95
2022-11-24T17:32:56.790Z,5.30
2022-11-24T17:36:44.755Z,5.65
2022-11-24T17:40:28.856Z,6.32
2022-11-24T17:44:12.699Z,7.63
2022-11-24T17:47:54.865Z,8.18
2022-11-24T17:51:36.757Z,9.32
2022-11-24T17:55:18.739Z,9.10
2022-11-24T17:59:01.082Z,11.15
2022-11-24T18:02:43.053Z,8.48
2022-11-24T18:06:25.519Z,7.68
2022-11-24T18:10:08.651Z,6.00
2022-11-24T18:14:01.194Z,4.10
2022-11-24T18:17:43.722Z,9.15
2022-11-24T18:21:25.834Z,9.02
2022-11-24T18:25:08.042Z,10.45
2022-11-24T18:28:50.658Z,6.05
2022-11-24T18:32:32.820Z,9.15
2022-11-24T18:36:19.693Z,7.63
2022-11-24T18:40:01.603Z,6.97
2022-11-24T18:43:43.605Z,8.18
2022-11-24T18:47:25.492Z,7.97
2022-11-24T18:51:08.747Z,10.63
2022-11-24T18:54:50.670Z,7.18
2022-11-24T18:58:34.404Z,9.32
2022-11-24T19:02:16.346Z,8.02
2022-11-24T19:06:02.312Z,8.80
2022-11-24T19:09:44.310Z,7.43
2022-11-24T19:13:26.208Z,5.95
2022-11-24T19:17:08.263Z,5.85
2022-11-24T19:20:50.102Z,5.45
2022-11-24T19:24:32.093Z,6.07
2022-11-24T19:28:14.031Z,5.20
2022-11-24T19:31:56.042Z,6.57
2022-11-24T19:35:37.975Z,7.40
2022-11-24T19:39:19.968Z,6.25
2022-11-24T19:43:01.829Z,8.20
2022-11-24T19:46:43.771Z,7.80
2022-11-24T19:50:25.635Z,6.80
2022-11-24T19:54:12.824Z,9.32
2022-11-24T19:57:54.671Z,8.13
2022-11-24T20:01:40.532Z,10.05
2022-11-24T20:05:22.443Z,10.00
2022-11-24T20:09:06.946Z,7.10
2022-11-24T20:12:48.906Z,7.20
2022-11-24T20:16:32.487Z,5.05
2022-11-24T20:20:14.475Z,5.05
2022-11-24T20:24:00.551Z,5.20
2022-11-24T20:27:42.412Z,5.55
2022-11-24T20:31:33.260Z,5.60
2022-11-24T20:35:18.395Z,5.07
2022-11-24T20:39:02.849Z,5.25
2022-11-24T20:42:44.699Z,3.30
2022-11-24T20:46:29.893Z,5.15
2022-11-24T20:50:11.767Z,5.25
2022-11-24T20:53:57.373Z,3.58
2022-11-24T20:57:39.206Z,5.03
2022-11-24T21:01:30.495Z,3.78
2022-11-24T21:05:12.441Z,4.97
2022-11-24T21:09:00.463Z,5.03
2022-11-24T21:12:45.268Z,6.65
2022-11-24T21:16:30.537Z,5.93
2022-11-24T21:20:12.823Z,4.93
2022-11-24T21:23:54.756Z,4.65
2022-11-24T21:27:36.622Z,5.10
2022-11-24T21:31:21.302Z,4.18
2022-11-24T21:35:03.233Z,4.22
2022-11-24T21:38:53.847Z,4.93
2022-11-24T21:42:35.842Z,4.32
2022-11-24T21:46:17.866Z,4.65
2022-11-24T21:49:59.775Z,4.55
2022-11-24T21:53:42.657Z,4.50
2022-11-24T21:57:24.641Z,4.18
2022-11-24T22:01:10.726Z,4.88
2022-11-24T22:04:52.738Z,4.35
2022-11-24T22:08:34.694Z,4.82
2022-11-24T22:12:17.108Z,4.85
2022-11-24T22:16:03.907Z,4.07
2022-11-24T22:19:45.814Z,4.82
2022-11-24T22:23:27.677Z,3.50
2022-11-24T22:27:09.580Z,4.30
2022-11-24T22:30:51.509Z,2.70
2022-11-24T22:34:33.588Z,4.88
2022-11-24T22:38:15.784Z,3.65
2022-11-24T22:41:57.691Z,3.35
2022-11-24T22:45:39.608Z,3.15
2022-11-24T22:49:21.810Z,3.92
2022-11-24T22:53:03.687Z,2.92
2022-11-24T22:56:45.796Z,4.15
2022-11-24T23:00:27.696Z,4.00
2022-11-24T23:04:09.732Z,3.70
2022-11-24T23:07:51.973Z,4.50
2022-11-24T23:11:39.228Z,2.75
2022-11-24T23:15:21.304Z,3.83
2022-11-24T23:19:03.647Z,3.13
2022-11-24T23:22:45.599Z,3.30
2022-11-24T23:26:32.979Z,3.35
2022-11-24T23:30:15.134Z,3.58
2022-11-24T23:34:02.098Z,3.97
2022-11-24T23:38:06.547Z,3.88
2022-11-24T23:41:46.128Z,4.25
2022-11-24T23:45:28.132Z,3.85
2022-11-24T23:49:10.139Z,3.80
2022-11-24T23:52:51.993Z,3.25
2022-11-24T23:56:33.885Z,3.28
